sensor_id;sensor_type;location;lat;lon;timestamp;temperature;humidity
37426;DHT22;23285;50.180;7.036;2023-01-29T00:00:45;0.90;99.90
37426;DHT22;23285;50.180;7.036;2023-01-29T00:09:06;0.90;99.90
37426;DHT22;23285;50.180;7.036;2023-01-29T00:11:54;0.90;99.90
37426;DHT22;23285;50.180;7.036;2023-01-29T00:14:41;1.10;99.90
37426;DHT22;23285;50.180;7.036;2023-01-29T00:20:14;1.10;99.90
37426;DHT22;23285;50.180;7.036;2023-01-29T00:23:00;1.00;99.90
37426;DHT22;23285;50.180;7.036;2023-01-29T00:28:34;0.70;99.90
37426;DHT22;23285;50.180;7.036;2023-01-29T00:31:23;0.20;99.90
37426;DHT22;23285;50.180;7.036;2023-01-29T00:34:09;0.50;99.90
37426;DHT22;23285;50.180;7.036;2023-01-29T00:36:56;0.80;99.90
37426;DHT22;23285;50.180;7.036;2023-01-29T00:45:40;0.60;99.90
37426;DHT22;23285;50.180;7.036;2023-01-29T00:51:14;1.50;99.90
37426;DHT22;23285;50.180;7.036;2023-01-29T00:56:48;1.10;99.90
37426;DHT22;23285;50.180;7.036;2023-01-29T01:02:24;1.40;99.90
37426;DHT22;23285;50.180;7.036;2023-01-29T01:05:28;1.20;99.90
37426;DHT22;23285;50.180;7.036;2023-01-29T01:08:16;1.60;99.90
37426;DHT22;23285;50.180;7.036;2023-01-29T01:11:20;2.10;99.90
37426;DHT22;23285;50.180;7.036;2023-01-29T01:14:06;2.50;99.90
37426;DHT22;23285;50.180;7.036;2023-01-29T01:16:53;2.30;99.90
37426;DHT22;23285;50.180;7.036;2023-01-29T01:19:41;2.30;99.90
37426;DHT22;23285;50.180;7.036;2023-01-29T01:22:27;2.10;99.90
37426;DHT22;23285;50.180;7.036;2023-01-29T01:25:13;1.70;99.90
37426;DHT22;23285;50.180;7.036;2023-01-29T01:28:01;1.60;99.90
37426;DHT22;23285;50.180;7.036;2023-01-29T01:30:48;1.80;99.90
37426;DHT22;23285;50.180;7.036;2023-01-29T01:33:34;1.00;99.90
37426;DHT22;23285;50.180;7.036;2023-01-29T01:39:09;0.70;99.90
37426;DHT22;23285;50.180;7.036;2023-01-29T01:41:56;0.80;99.90
37426;DHT22;23285;50.180;7.036;2023-01-29T01:44:54;0.90;99.90
37426;DHT22;23285;50.180;7.036;2023-01-29T01:50:34;1.20;99.90
37426;DHT22;23285;50.180;7.036;2023-01-29T01:53:26;1.20;99.90
37426;DHT22;23285;50.180;7.036;2023-01-29T01:56:18;1.40;99.90
37426;DHT22;23285;50.180;7.036;2023-01-29T01:59:08;1.40;99.90
37426;DHT22;23285;50.180;7.036;2023-01-29T02:01:55;1.50;99.90
37426;DHT22;23285;50.180;7.036;2023-01-29T02:07:49;1.40;99.90
37426;DHT22;23285;50.180;7.036;2023-01-29T02:10:55;1.20;99.90
37426;DHT22;23285;50.180;7.036;2023-01-29T02:19:33;0.60;99.90
37426;DHT22;23285;50.180;7.036;2023-01-29T02:22:42;0.50;99.90
37426;DHT22;23285;50.180;7.036;2023-01-29T02:25:52;0.50;99.90
37426;DHT22;23285;50.180;7.036;2023-01-29T02:28:46;0.70;99.90
37426;DHT22;23285;50.180;7.036;2023-01-29T02:31:41;1.20;99.90
37426;DHT22;23285;50.180;7.036;2023-01-29T02:34:37;1.00;99.90
37426;DHT22;23285;50.180;7.036;2023-01-29T02:37:51;0.40;99.90
37426;DHT22;23285;50.180;7.036;2023-01-29T02:40:43;0.60;99.90
37426;DHT22;23285;50.180;7.036;2023-01-29T02:46:28;1.50;99.90
37426;DHT22;23285;50.180;7.036;2023-01-29T02:49:21;1.00;99.90
37426;DHT22;23285;50.180;7.036;2023-01-29T02:55:03;0.80;99.90
37426;DHT22;23285;50.180;7.036;2023-01-29T02:57:55;0.90;99.90
37426;DHT22;23285;50.180;7.036;2023-01-29T03:00:46;1.20;99.90
37426;DHT22;23285;50.180;7.036;2023-01-29T03:03:37;1.00;99.90
37426;DHT22;23285;50.180;7.036;2023-01-29T03:09:21;1.40;99.90
37426;DHT22;23285;50.180;7.036;2023-01-29T03:15:18;0.70;99.90
37426;DHT22;23285;50.180;7.036;2023-01-29T03:24:34;1.30;99.90
37426;DHT22;23285;50.180;7.036;2023-01-29T03:27:44;1.00;99.90
37426;DHT22;23285;50.180;7.036;2023-01-29T03:30:57;1.20;99.90
37426;DHT22;23285;50.180;7.036;2023-01-29T03:34:08;0.40;99.90
37426;DHT22;23285;50.180;7.036;2023-01-29T03:39:53;0.60;99.90
37426;DHT22;23285;50.180;7.036;2023-01-29T03:42:51;0.80;99.90
37426;DHT22;23285;50.180;7.036;2023-01-29T03:45:49;0.60;99.90
37426;DHT22;23285;50.180;7.036;2023-01-29T03:48:48;0.70;99.90
37426;DHT22;23285;50.180;7.036;2023-01-29T03:51:37;0.90;99.90
37426;DHT22;23285;50.180;7.036;2023-01-29T03:54:33;1.00;99.90
37426;DHT22;23285;50.180;7.036;2023-01-29T04:00:18;0.90;99.90
37426;DHT22;23285;50.180;7.036;2023-01-29T04:03:19;1.00;99.90
37426;DHT22;23285;50.180;7.036;2023-01-29T04:06:11;0.80;99.90
37426;DHT22;23285;50.180;7.036;2023-01-29T04:09:16;1.00;99.90
37426;DHT22;23285;50.180;7.036;2023-01-29T04:14:59;0.70;99.90
37426;DHT22;23285;50.180;7.036;2023-01-29T04:17:49;0.50;99.90
37426;DHT22;23285;50.180;7.036;2023-01-29T04:20:48;0.40;99.90
37426;DHT22;23285;50.180;7.036;2023-01-29T04:23:34;0.60;99.90
37426;DHT22;23285;50.180;7.036;2023-01-29T04:26:32;0.70;99.90
37426;DHT22;23285;50.180;7.036;2023-01-29T04:29:39;0.50;99.90
37426;DHT22;23285;50.180;7.036;2023-01-29T04:35:25;0.50;99.90
37426;DHT22;23285;50.180;7.036;2023-01-29T04:38:22;0.40;99.90
37426;DHT22;23285;50.180;7.036;2023-01-29T04:41:17;0.00;99.90
37426;DHT22;23285;50.180;7.036;2023-01-29T04:44:12;0.00;99.90
37426;DHT22;23285;50.180;7.036;2023-01-29T04:49:58;0.10;99.90
37426;DHT22;23285;50.180;7.036;2023-01-29T04:52:50;-0.20;99.90
37426;DHT22;23285;50.180;7.036;2023-01-29T04:55:46;0.00;99.90
37426;DHT22;23285;50.180;7.036;2023-01-29T05:04:17;-0.30;99.90
37426;DHT22;23285;50.180;7.036;2023-01-29T05:07:06;-0.10;99.90
37426;DHT22;23285;50.180;7.036;2023-01-29T05:09:54;-0.40;99.90
37426;DHT22;23285;50.180;7.036;2023-01-29T05:12:44;-0.20;99.90
37426;DHT22;23285;50.180;7.036;2023-01-29T05:18:21;0.00;99.90
37426;DHT22;23285;50.180;7.036;2023-01-29T05:24:09;-0.20;99.90
37426;DHT22;23285;50.180;7.036;2023-01-29T05:26:56;-0.40;99.90
37426;DHT22;23285;50.180;7.036;2023-01-29T05:32:46;-0.90;99.90
37426;DHT22;23285;50.180;7.036;2023-01-29T05:35:33;-0.60;99.90
37426;DHT22;23285;50.180;7.036;2023-01-29T05:38:21;-0.70;99.90
37426;DHT22;23285;50.180;7.036;2023-01-29T05:41:08;-0.80;99.90
37426;DHT22;23285;50.180;7.036;2023-01-29T05:43:54;-0.50;99.90
37426;DHT22;23285;50.180;7.036;2023-01-29T05:46:41;-0.60;99.90
37426;DHT22;23285;50.180;7.036;2023-01-29T05:52:14;-0.50;99.90
37426;DHT22;23285;50.180;7.036;2023-01-29T05:55:02;-0.20;99.90
37426;DHT22;23285;50.180;7.036;2023-01-29T05:57:49;-0.10;99.90
37426;DHT22;23285;50.180;7.036;2023-01-29T06:06:08;-0.40;99.90
37426;DHT22;23285;50.180;7.036;2023-01-29T06:11:43;-0.30;99.90
37426;DHT22;23285;50.180;7.036;2023-01-29T06:14:29;-0.60;99.90
37426;DHT22;23285;50.180;7.036;2023-01-29T06:17:16;-0.70;99.90
37426;DHT22;23285;50.180;7.036;2023-01-29T06:20:04;-0.90;99.90
37426;DHT22;23285;50.180;7.036;2023-01-29T06:25:38;-1.20;99.90
37426;DHT22;23285;50.180;7.036;2023-01-29T06:28:25;-1.10;99.90
37426;DHT22;23285;50.180;7.036;2023-01-29T06:31:12;-1.30;99.90
37426;DHT22;23285;50.180;7.036;2023-01-29T06:33:58;-1.00;99.90
37426;DHT22;23285;50.180;7.036;2023-01-29T06:39:31;-0.70;99.90
37426;DHT22;23285;50.180;7.036;2023-01-29T06:42:18;-0.70;99.90
37426;DHT22;23285;50.180;7.036;2023-01-29T06:47:53;-0.80;99.90
37426;DHT22;23285;50.180;7.036;2023-01-29T06:53:25;-0.80;99.90
37426;DHT22;23285;50.180;7.036;2023-01-29T06:58:59;-1.40;99.90
37426;DHT22;23285;50.180;7.036;2023-01-29T07:01:46;-1.30;99.90
37426;DHT22;23285;50.180;7.036;2023-01-29T07:04:33;-1.20;99.90
37426;DHT22;23285;50.180;7.036;2023-01-29T07:07:20;-1.00;99.90
37426;DHT22;23285;50.180;7.036;2023-01-29T07:12:54;-0.70;99.90
37426;DHT22;23285;50.180;7.036;2023-01-29T07:18:30;-0.60;99.90
37426;DHT22;23285;50.180;7.036;2023-01-29T07:21:16;-0.80;99.90
37426;DHT22;23285;50.180;7.036;2023-01-29T07:24:03;-0.90;99.90
37426;DHT22;23285;50.180;7.036;2023-01-29T07:29:36;-0.40;99.90
37426;DHT22;23285;50.180;7.036;2023-01-29T07:32:22;-0.90;99.90
37426;DHT22;23285;50.180;7.036;2023-01-29T07:35:10;-1.00;99.90
37426;DHT22;23285;50.180;7.036;2023-01-29T07:43:31;-0.80;99.90
37426;DHT22;23285;50.180;7.036;2023-01-29T07:51:52;-0.90;99.90
37426;DHT22;23285;50.180;7.036;2023-01-29T07:57:26;-1.10;99.90
37426;DHT22;23285;50.180;7.036;2023-01-29T08:00:13;-0.80;99.90
37426;DHT22;23285;50.180;7.036;2023-01-29T08:05:50;-1.40;99.90
37426;DHT22;23285;50.180;7.036;2023-01-29T08:08:38;-1.50;99.90
37426;DHT22;23285;50.180;7.036;2023-01-29T08:11:25;-1.30;99.90
37426;DHT22;23285;50.180;7.036;2023-01-29T08:16:58;-0.80;99.90
37426;DHT22;23285;50.180;7.036;2023-01-29T08:19:44;-1.00;99.90
37426;DHT22;23285;50.180;7.036;2023-01-29T08:25:18;-0.80;99.90
37426;DHT22;23285;50.180;7.036;2023-01-29T08:28:05;-0.60;99.90
37426;DHT22;23285;50.180;7.036;2023-01-29T08:39:10;-0.40;99.90
37426;DHT22;23285;50.180;7.036;2023-01-29T08:44:45;-0.70;99.90
37426;DHT22;23285;50.180;7.036;2023-01-29T08:47:31;-0.30;99.90
37426;DHT22;23285;50.180;7.036;2023-01-29T08:50:18;0.30;99.90
37426;DHT22;23285;50.180;7.036;2023-01-29T08:53:05;0.40;99.90
37426;DHT22;23285;50.180;7.036;2023-01-29T08:55:53;0.00;99.90
37426;DHT22;23285;50.180;7.036;2023-01-29T09:01:28;-0.30;99.90
37426;DHT22;23285;50.180;7.036;2023-01-29T09:04:14;0.20;99.90
37426;DHT22;23285;50.180;7.036;2023-01-29T09:07:01;-0.20;99.90
37426;DHT22;23285;50.180;7.036;2023-01-29T09:12:34;-0.20;99.90
37426;DHT22;23285;50.180;7.036;2023-01-29T09:15:22;-0.20;99.90
37426;DHT22;23285;50.180;7.036;2023-01-29T09:18:08;0.00;99.90
37426;DHT22;23285;50.180;7.036;2023-01-29T09:20:55;0.00;99.90
37426;DHT22;23285;50.180;7.036;2023-01-29T09:23:42;0.50;99.90
37426;DHT22;23285;50.180;7.036;2023-01-29T09:26:28;-0.40;99.90
37426;DHT22;23285;50.180;7.036;2023-01-29T09:29:14;-0.10;99.90
37426;DHT22;23285;50.180;7.036;2023-01-29T09:34:49;-0.40;99.90
37426;DHT22;23285;50.180;7.036;2023-01-29T09:37:35;-0.30;99.90
37426;DHT22;23285;50.180;7.036;2023-01-29T09:40:25;-0.30;99.90
37426;DHT22;23285;50.180;7.036;2023-01-29T09:43:14;-0.50;99.90
37426;DHT22;23285;50.180;7.036;2023-01-29T09:46:05;-0.40;99.90
37426;DHT22;23285;50.180;7.036;2023-01-29T09:49:00;0.00;99.90
37426;DHT22;23285;50.180;7.036;2023-01-29T09:51:50;0.40;99.90
37426;DHT22;23285;50.180;7.036;2023-01-29T09:54:47;0.20;99.90
37426;DHT22;23285;50.180;7.036;2023-01-29T09:57:41;0.00;99.90
37426;DHT22;23285;50.180;7.036;2023-01-29T10:00:34;0.10;99.90
37426;DHT22;23285;50.180;7.036;2023-01-29T10:03:42;-0.20;99.90
37426;DHT22;23285;50.180;7.036;2023-01-29T10:06:42;-0.40;99.90
37426;DHT22;23285;50.180;7.036;2023-01-29T10:09:57;0.00;99.90
37426;DHT22;23285;50.180;7.036;2023-01-29T10:15:52;0.40;99.90
37426;DHT22;23285;50.180;7.036;2023-01-29T10:18:52;0.60;99.90
37426;DHT22;23285;50.180;7.036;2023-01-29T10:27:31;1.00;99.90
37426;DHT22;23285;50.180;7.036;2023-01-29T10:30:28;1.00;99.90
37426;DHT22;23285;50.180;7.036;2023-01-29T10:33:24;1.00;99.90
37426;DHT22;23285;50.180;7.036;2023-01-29T10:36:14;0.70;99.90
37426;DHT22;23285;50.180;7.036;2023-01-29T10:39:03;0.90;99.90
37426;DHT22;23285;50.180;7.036;2023-01-29T10:42:01;1.40;99.90
37426;DHT22;23285;50.180;7.036;2023-01-29T10:45:03;1.60;99.90
37426;DHT22;23285;50.180;7.036;2023-01-29T10:48:05;1.60;99.90
37426;DHT22;23285;50.180;7.036;2023-01-29T10:50:57;1.40;99.90
37426;DHT22;23285;50.180;7.036;2023-01-29T10:53:53;1.50;99.90
37426;DHT22;23285;50.180;7.036;2023-01-29T10:56:55;1.40;99.90
37426;DHT22;23285;50.180;7.036;2023-01-29T10:59:53;1.20;99.90
37426;DHT22;23285;50.180;7.036;2023-01-29T11:02:44;1.40;99.90
37426;DHT22;23285;50.180;7.036;2023-01-29T11:05:35;1.30;99.90
37426;DHT22;23285;50.180;7.036;2023-01-29T11:08:25;1.70;99.90
37426;DHT22;23285;50.180;7.036;2023-01-29T11:11:14;1.50;99.90
37426;DHT22;23285;50.180;7.036;2023-01-29T11:14:04;1.40;99.90
37426;DHT22;23285;50.180;7.036;2023-01-29T11:16:53;1.20;99.90
37426;DHT22;23285;50.180;7.036;2023-01-29T11:19:41;1.30;99.90
37426;DHT22;23285;50.180;7.036;2023-01-29T11:22:29;1.50;99.90
37426;DHT22;23285;50.180;7.036;2023-01-29T11:30:52;1.80;99.90
37426;DHT22;23285;50.180;7.036;2023-01-29T11:33:39;1.60;99.90
37426;DHT22;23285;50.180;7.036;2023-01-29T11:39:19;2.20;99.90
37426;DHT22;23285;50.180;7.036;2023-01-29T11:45:24;2.40;99.90
37426;DHT22;23285;50.180;7.036;2023-01-29T11:48:16;2.40;99.90
37426;DHT22;23285;50.180;7.036;2023-01-29T11:51:03;2.60;99.90
37426;DHT22;23285;50.180;7.036;2023-01-29T11:53:51;2.50;99.90
37426;DHT22;23285;50.180;7.036;2023-01-29T11:59:36;2.40;99.90
37426;DHT22;23285;50.180;7.036;2023-01-29T12:02:33;2.70;99.90
37426;DHT22;23285;50.180;7.036;2023-01-29T12:05:23;2.50;99.90
37426;DHT22;23285;50.180;7.036;2023-01-29T12:08:15;2.80;99.90
37426;DHT22;23285;50.180;7.036;2023-01-29T12:11:10;3.40;99.90
37426;DHT22;23285;50.180;7.036;2023-01-29T12:13:58;3.50;99.90
37426;DHT22;23285;50.180;7.036;2023-01-29T12:16:51;3.60;99.90
37426;DHT22;23285;50.180;7.036;2023-01-29T12:19:42;3.60;99.90
37426;DHT22;23285;50.180;7.036;2023-01-29T12:22:40;4.20;99.90
37426;DHT22;23285;50.180;7.036;2023-01-29T12:28:35;4.20;99.90
37426;DHT22;23285;50.180;7.036;2023-01-29T12:31:28;4.20;99.90
37426;DHT22;23285;50.180;7.036;2023-01-29T12:34:23;4.00;99.90
37426;DHT22;23285;50.180;7.036;2023-01-29T12:40:11;4.30;99.90
37426;DHT22;23285;50.180;7.036;2023-01-29T12:45:52;4.70;99.90
37426;DHT22;23285;50.180;7.036;2023-01-29T12:48:41;4.10;99.90
37426;DHT22;23285;50.180;7.036;2023-01-29T12:51:32;4.50;99.90
37426;DHT22;23285;50.180;7.036;2023-01-29T12:57:19;4.50;99.90
37426;DHT22;23285;50.180;7.036;2023-01-29T13:00:10;4.70;99.90
37426;DHT22;23285;50.180;7.036;2023-01-29T13:03:00;5.10;99.90
37426;DHT22;23285;50.180;7.036;2023-01-29T13:08:39;4.90;99.90
37426;DHT22;23285;50.180;7.036;2023-01-29T13:11:31;5.20;99.90
37426;DHT22;23285;50.180;7.036;2023-01-29T13:17:11;4.80;99.90
37426;DHT22;23285;50.180;7.036;2023-01-29T13:28:25;5.40;99.90
37426;DHT22;23285;50.180;7.036;2023-01-29T13:31:28;5.70;99.90
37426;DHT22;23285;50.180;7.036;2023-01-29T13:34:19;5.50;99.90
37426;DHT22;23285;50.180;7.036;2023-01-29T13:37:11;5.50;99.90
37426;DHT22;23285;50.180;7.036;2023-01-29T13:40:04;5.50;99.90
37426;DHT22;23285;50.180;7.036;2023-01-29T13:42:52;5.50;99.90
37426;DHT22;23285;50.180;7.036;2023-01-29T13:45:42;5.90;99.90
37426;DHT22;23285;50.180;7.036;2023-01-29T13:48:31;6.00;99.90
37426;DHT22;23285;50.180;7.036;2023-01-29T13:51:21;6.00;99.90
37426;DHT22;23285;50.180;7.036;2023-01-29T13:54:17;5.70;99.90
37426;DHT22;23285;50.180;7.036;2023-01-29T13:57:33;5.90;99.90
37426;DHT22;23285;50.180;7.036;2023-01-29T14:03:50;5.60;99.90
37426;DHT22;23285;50.180;7.036;2023-01-29T14:06:47;5.50;99.90
37426;DHT22;23285;50.180;7.036;2023-01-29T14:13:25;5.50;99.90
37426;DHT22;23285;50.180;7.036;2023-01-29T14:16:36;5.00;99.90
37426;DHT22;23285;50.180;7.036;2023-01-29T14:19:23;5.70;99.90
37426;DHT22;23285;50.180;7.036;2023-01-29T14:22:19;5.50;99.90
37426;DHT22;23285;50.180;7.036;2023-01-29T14:27:53;5.70;99.90
37426;DHT22;23285;50.180;7.036;2023-01-29T14:30:45;6.00;99.90
37426;DHT22;23285;50.180;7.036;2023-01-29T14:33:35;6.50;99.90
37426;DHT22;23285;50.180;7.036;2023-01-29T14:36:25;6.50;99.90
37426;DHT22;23285;50.180;7.036;2023-01-29T14:39:22;6.60;99.90
37426;DHT22;23285;50.180;7.036;2023-01-29T14:42:19;7.00;99.90
37426;DHT22;23285;50.180;7.036;2023-01-29T14:48:01;7.20;99.90
37426;DHT22;23285;50.180;7.036;2023-01-29T14:50:56;6.60;99.90
37426;DHT22;23285;50.180;7.036;2023-01-29T14:53:58;6.20;99.90
37426;DHT22;23285;50.180;7.036;2023-01-29T14:56:54;6.00;99.90
37426;DHT22;23285;50.180;7.036;2023-01-29T14:59:48;5.80;99.90
37426;DHT22;23285;50.180;7.036;2023-01-29T15:02:38;6.20;99.90
37426;DHT22;23285;50.180;7.036;2023-01-29T15:05:27;6.30;99.90
37426;DHT22;23285;50.180;7.036;2023-01-29T15:08:18;5.70;99.90
37426;DHT22;23285;50.180;7.036;2023-01-29T15:11:13;5.30;99.90
37426;DHT22;23285;50.180;7.036;2023-01-29T15:14:29;5.50;99.90
37426;DHT22;23285;50.180;7.036;2023-01-29T15:17:21;5.40;99.90
37426;DHT22;23285;50.180;7.036;2023-01-29T15:23:24;4.40;99.90
37426;DHT22;23285;50.180;7.036;2023-01-29T15:26:16;4.70;99.90
37426;DHT22;23285;50.180;7.036;2023-01-29T15:29:03;4.90;99.90
37426;DHT22;23285;50.180;7.036;2023-01-29T15:31:50;4.70;99.90
37426;DHT22;23285;50.180;7.036;2023-01-29T15:34:36;4.50;99.90
37426;DHT22;23285;50.180;7.036;2023-01-29T15:37:28;4.20;99.90
37426;DHT22;23285;50.180;7.036;2023-01-29T15:43:18;4.10;99.90
37426;DHT22;23285;50.180;7.036;2023-01-29T15:46:11;3.90;99.90
37426;DHT22;23285;50.180;7.036;2023-01-29T15:49:07;3.60;99.90
37426;DHT22;23285;50.180;7.036;2023-01-29T15:54:42;3.80;99.90
37426;DHT22;23285;50.180;7.036;2023-01-29T15:57:33;3.60;99.90
37426;DHT22;23285;50.180;7.036;2023-01-29T16:00:25;3.60;99.90
37426;DHT22;23285;50.180;7.036;2023-01-29T16:03:13;3.20;99.90
37426;DHT22;23285;50.180;7.036;2023-01-29T16:06:01;3.10;99.90
37426;DHT22;23285;50.180;7.036;2023-01-29T16:11:35;2.40;99.90
37426;DHT22;23285;50.180;7.036;2023-01-29T16:14:22;2.40;99.90
37426;DHT22;23285;50.180;7.036;2023-01-29T16:17:24;2.20;99.90
37426;DHT22;23285;50.180;7.036;2023-01-29T16:20:26;2.40;99.90
37426;DHT22;23285;50.180;7.036;2023-01-29T16:23:17;2.30;99.90
37426;DHT22;23285;50.180;7.036;2023-01-29T16:26:06;2.30;99.90
37426;DHT22;23285;50.180;7.036;2023-01-29T16:31:41;2.20;99.90
37426;DHT22;23285;50.180;7.036;2023-01-29T16:34:31;1.90;99.90
37426;DHT22;23285;50.180;7.036;2023-01-29T16:37:22;1.80;99.90
37426;DHT22;23285;50.180;7.036;2023-01-29T16:40:13;2.00;99.90
37426;DHT22;23285;50.180;7.036;2023-01-29T16:46:32;1.60;99.90
37426;DHT22;23285;50.180;7.036;2023-01-29T16:49:48;1.90;99.90
37426;DHT22;23285;50.180;7.036;2023-01-29T16:52:35;2.00;99.90
37426;DHT22;23285;50.180;7.036;2023-01-29T16:55:22;2.00;99.90
37426;DHT22;23285;50.180;7.036;2023-01-29T16:58:14;1.80;99.90
37426;DHT22;23285;50.180;7.036;2023-01-29T17:01:03;1.30;99.90
37426;DHT22;23285;50.180;7.036;2023-01-29T17:06:43;1.50;99.90
37426;DHT22;23285;50.180;7.036;2023-01-29T17:09:33;2.00;99.90
37426;DHT22;23285;50.180;7.036;2023-01-29T17:12:22;1.70;99.90
37426;DHT22;23285;50.180;7.036;2023-01-29T17:15:32;1.70;99.90
37426;DHT22;23285;50.180;7.036;2023-01-29T17:18:21;1.40;99.90
37426;DHT22;23285;50.180;7.036;2023-01-29T17:21:08;1.50;99.90
37426;DHT22;23285;50.180;7.036;2023-01-29T17:23:56;1.40;99.90
37426;DHT22;23285;50.180;7.036;2023-01-29T17:32:16;1.70;99.90
37426;DHT22;23285;50.180;7.036;2023-01-29T17:35:04;1.30;99.90
37426;DHT22;23285;50.180;7.036;2023-01-29T17:37:51;1.70;99.90
37426;DHT22;23285;50.180;7.036;2023-01-29T17:40:40;1.30;99.90
37426;DHT22;23285;50.180;7.036;2023-01-29T17:43:27;1.70;99.90
37426;DHT22;23285;50.180;7.036;2023-01-29T17:46:15;1.90;99.90
37426;DHT22;23285;50.180;7.036;2023-01-29T17:49:02;1.90;99.90
37426;DHT22;23285;50.180;7.036;2023-01-29T17:51:51;1.30;99.90
37426;DHT22;23285;50.180;7.036;2023-01-29T17:54:38;1.30;99.90
37426;DHT22;23285;50.180;7.036;2023-01-29T17:57:25;1.50;99.90
37426;DHT22;23285;50.180;7.036;2023-01-29T18:00:17;1.50;99.90
37426;DHT22;23285;50.180;7.036;2023-01-29T18:03:03;1.20;99.90
37426;DHT22;23285;50.180;7.036;2023-01-29T18:05:50;0.90;99.90
37426;DHT22;23285;50.180;7.036;2023-01-29T18:08:38;1.00;99.90
37426;DHT22;23285;50.180;7.036;2023-01-29T18:14:13;0.60;99.90
37426;DHT22;23285;50.180;7.036;2023-01-29T18:17:00;0.40;99.90
37426;DHT22;23285;50.180;7.036;2023-01-29T18:22:33;0.40;99.90
37426;DHT22;23285;50.180;7.036;2023-01-29T18:25:19;0.40;99.90
37426;DHT22;23285;50.180;7.036;2023-01-29T18:30:54;0.40;99.90
37426;DHT22;23285;50.180;7.036;2023-01-29T18:36:27;0.80;99.90
37426;DHT22;23285;50.180;7.036;2023-01-29T18:42:00;0.70;99.90
37426;DHT22;23285;50.180;7.036;2023-01-29T18:44:46;0.60;99.90
37426;DHT22;23285;50.180;7.036;2023-01-29T18:47:34;0.70;99.90
37426;DHT22;23285;50.180;7.036;2023-01-29T18:50:20;0.80;99.90
37426;DHT22;23285;50.180;7.036;2023-01-29T18:53:09;0.70;99.90
37426;DHT22;23285;50.180;7.036;2023-01-29T18:55:56;0.70;99.90
37426;DHT22;23285;50.180;7.036;2023-01-29T18:58:42;0.90;99.90
37426;DHT22;23285;50.180;7.036;2023-01-29T19:01:29;0.70;99.90
37426;DHT22;23285;50.180;7.036;2023-01-29T19:04:17;0.80;99.90
37426;DHT22;23285;50.180;7.036;2023-01-29T19:12:36;1.00;99.90
37426;DHT22;23285;50.180;7.036;2023-01-29T19:15:24;1.00;99.90
37426;DHT22;23285;50.180;7.036;2023-01-29T19:20:59;0.60;99.90
37426;DHT22;23285;50.180;7.036;2023-01-29T19:29:19;0.90;99.90
37426;DHT22;23285;50.180;7.036;2023-01-29T19:32:06;0.90;99.90
37426;DHT22;23285;50.180;7.036;2023-01-29T19:34:54;0.70;99.90
37426;DHT22;23285;50.180;7.036;2023-01-29T19:40:30;0.90;99.90
37426;DHT22;23285;50.180;7.036;2023-01-29T19:46:04;0.60;99.90
37426;DHT22;23285;50.180;7.036;2023-01-29T19:51:38;0.50;99.90
37426;DHT22;23285;50.180;7.036;2023-01-29T19:54:27;0.70;99.90
37426;DHT22;23285;50.180;7.036;2023-01-29T20:02:49;0.30;99.90
37426;DHT22;23285;50.180;7.036;2023-01-29T20:05:36;0.10;99.90
37426;DHT22;23285;50.180;7.036;2023-01-29T20:08:22;0.20;99.90
37426;DHT22;23285;50.180;7.036;2023-01-29T20:11:11;0.30;99.90
37426;DHT22;23285;50.180;7.036;2023-01-29T20:16:44;0.10;99.90
37426;DHT22;23285;50.180;7.036;2023-01-29T20:25:06;0.10;99.90
37426;DHT22;23285;50.180;7.036;2023-01-29T20:27:54;0.00;99.90
37426;DHT22;23285;50.180;7.036;2023-01-29T20:30:42;0.40;99.90
37426;DHT22;23285;50.180;7.036;2023-01-29T20:33:29;0.50;99.90
37426;DHT22;23285;50.180;7.036;2023-01-29T20:36:16;0.50;99.90
37426;DHT22;23285;50.180;7.036;2023-01-29T20:39:02;0.50;99.90
37426;DHT22;23285;50.180;7.036;2023-01-29T20:44:37;0.50;99.90
37426;DHT22;23285;50.180;7.036;2023-01-29T20:55:44;0.40;99.90
37426;DHT22;23285;50.180;7.036;2023-01-29T20:58:30;0.50;99.90
37426;DHT22;23285;50.180;7.036;2023-01-29T21:01:19;0.40;99.90
37426;DHT22;23285;50.180;7.036;2023-01-29T21:04:05;0.20;99.90
37426;DHT22;23285;50.180;7.036;2023-01-29T21:06:51;0.20;99.90
37426;DHT22;23285;50.180;7.036;2023-01-29T21:09:38;0.30;99.90
37426;DHT22;23285;50.180;7.036;2023-01-29T21:12:24;0.30;99.90
37426;DHT22;23285;50.180;7.036;2023-01-29T21:20:48;0.30;99.90
37426;DHT22;23285;50.180;7.036;2023-01-29T21:23:35;0.40;99.90
37426;DHT22;23285;50.180;7.036;2023-01-29T21:26:21;0.50;99.90
37426;DHT22;23285;50.180;7.036;2023-01-29T21:29:09;0.30;99.90
37426;DHT22;23285;50.180;7.036;2023-01-29T21:34:44;0.40;99.90
37426;DHT22;23285;50.180;7.036;2023-01-29T21:40:20;0.50;99.90
37426;DHT22;23285;50.180;7.036;2023-01-29T21:43:08;0.30;99.90
37426;DHT22;23285;50.180;7.036;2023-01-29T21:45:58;0.40;99.90
37426;DHT22;23285;50.180;7.036;2023-01-29T21:48:47;0.20;99.90
37426;DHT22;23285;50.180;7.036;2023-01-29T21:51:36;0.10;99.90
37426;DHT22;23285;50.180;7.036;2023-01-29T21:57:15;0.00;99.90
37426;DHT22;23285;50.180;7.036;2023-01-29T22:00:02;0.00;99.90
37426;DHT22;23285;50.180;7.036;2023-01-29T22:02:49;0.10;99.90
37426;DHT22;23285;50.180;7.036;2023-01-29T22:14:21;0.00;99.90
37426;DHT22;23285;50.180;7.036;2023-01-29T22:17:08;0.10;99.90
37426;DHT22;23285;50.180;7.036;2023-01-29T22:19:54;0.20;99.90
37426;DHT22;23285;50.180;7.036;2023-01-29T22:25:28;0.10;99.90
37426;DHT22;23285;50.180;7.036;2023-01-29T22:28:16;0.20;99.90
37426;DHT22;23285;50.180;7.036;2023-01-29T22:31:04;0.00;99.90
37426;DHT22;23285;50.180;7.036;2023-01-29T22:33:50;0.00;99.90
37426;DHT22;23285;50.180;7.036;2023-01-29T22:36:37;0.30;99.90
37426;DHT22;23285;50.180;7.036;2023-01-29T22:39:23;0.20;99.90
37426;DHT22;23285;50.180;7.036;2023-01-29T22:47:44;0.10;99.90
37426;DHT22;23285;50.180;7.036;2023-01-29T22:50:31;0.30;99.90
37426;DHT22;23285;50.180;7.036;2023-01-29T22:53:17;0.00;99.90
37426;DHT22;23285;50.180;7.036;2023-01-29T22:56:04;0.20;99.90
37426;DHT22;23285;50.180;7.036;2023-01-29T22:58:53;0.00;99.90
37426;DHT22;23285;50.180;7.036;2023-01-29T23:18:20;0.10;99.90
37426;DHT22;23285;50.180;7.036;2023-01-29T23:23:53;0.40;99.90
37426;DHT22;23285;50.180;7.036;2023-01-29T23:29:47;0.60;99.90
37426;DHT22;23285;50.180;7.036;2023-01-29T23:32:34;0.50;99.90
37426;DHT22;23285;50.180;7.036;2023-01-29T23:38:07;0.30;99.90
37426;DHT22;23285;50.180;7.036;2023-01-29T23:43:41;0.50;99.90
37426;DHT22;23285;50.180;7.036;2023-01-29T23:46:28;0.70;99.90
37426;DHT22;23285;50.180;7.036;2023-01-29T23:54:49;0.50;99.90
